sensor_id;sensor_type;location;lat;lon;timestamp;P1;durP1;ratioP1;P2;durP2;ratioP2
51224;SDS011;37298;42.688;23.312;2022-12-11T00:01:09;41.20;;;21.60;;
51224;SDS011;37298;42.688;23.312;2022-12-11T00:03:36;38.05;;;21.73;;
51224;SDS011;37298;42.688;23.312;2022-12-11T00:06:05;28.42;;;19.70;;
51224;SDS011;37298;42.688;23.312;2022-12-11T00:08:32;38.95;;;22.00;;
51224;SDS011;37298;42.688;23.312;2022-12-11T00:10:59;37.47;;;20.98;;
51224;SDS011;37298;42.688;23.312;2022-12-11T00:13:26;35.15;;;21.05;;
51224;SDS011;37298;42.688;23.312;2022-12-11T00:15:53;35.72;;;18.98;;
51224;SDS011;37298;42.688;23.312;2022-12-11T00:18:19;30.73;;;18.75;;
51224;SDS011;37298;42.688;23.312;2022-12-11T00:20:46;34.67;;;19.48;;
51224;SDS011;37298;42.688;23.312;2022-12-11T00:23:14;37.58;;;19.70;;
51224;SDS011;37298;42.688;23.312;2022-12-11T00:25:42;31.23;;;18.98;;
51224;SDS011;37298;42.688;23.312;2022-12-11T00:28:09;39.03;;;19.58;;
51224;SDS011;37298;42.688;23.312;2022-12-11T00:30:37;40.67;;;18.27;;
51224;SDS011;37298;42.688;23.312;2022-12-11T00:33:04;25.80;;;13.60;;
51224;SDS011;37298;42.688;23.312;2022-12-11T00:35:31;32.65;;;18.80;;
51224;SDS011;37298;42.688;23.312;2022-12-11T00:37:58;31.83;;;20.42;;
51224;SDS011;37298;42.688;23.312;2022-12-11T00:40:26;32.22;;;18.58;;
51224;SDS011;37298;42.688;23.312;2022-12-11T00:42:53;33.08;;;18.55;;
51224;SDS011;37298;42.688;23.312;2022-12-11T00:45:20;30.52;;;17.00;;
51224;SDS011;37298;42.688;23.312;2022-12-11T00:47:46;28.15;;;18.20;;
51224;SDS011;37298;42.688;23.312;2022-12-11T00:50:13;30.10;;;17.50;;
51224;SDS011;37298;42.688;23.312;2022-12-11T00:52:40;32.67;;;17.27;;
51224;SDS011;37298;42.688;23.312;2022-12-11T00:55:07;27.95;;;16.00;;
51224;SDS011;37298;42.688;23.312;2022-12-11T00:57:35;24.05;;;16.30;;
51224;SDS011;37298;42.688;23.312;2022-12-11T01:00:02;35.92;;;17.50;;
51224;SDS011;37298;42.688;23.312;2022-12-11T01:02:30;26.73;;;15.32;;
51224;SDS011;37298;42.688;23.312;2022-12-11T01:04:57;26.33;;;15.70;;
51224;SDS011;37298;42.688;23.312;2022-12-11T01:07:24;27.40;;;15.07;;
51224;SDS011;37298;42.688;23.312;2022-12-11T01:09:51;22.20;;;13.18;;
51224;SDS011;37298;42.688;23.312;2022-12-11T01:12:36;24.52;;;13.75;;
51224;SDS011;37298;42.688;23.312;2022-12-11T01:15:04;17.80;;;13.15;;
51224;SDS011;37298;42.688;23.312;2022-12-11T01:17:31;22.63;;;14.20;;
51224;SDS011;37298;42.688;23.312;2022-12-11T01:19:58;21.25;;;13.55;;
51224;SDS011;37298;42.688;23.312;2022-12-11T01:22:25;18.63;;;12.35;;
51224;SDS011;37298;42.688;23.312;2022-12-11T01:24:51;21.80;;;11.52;;
51224;SDS011;37298;42.688;23.312;2022-12-11T01:27:18;15.55;;;10.80;;
51224;SDS011;37298;42.688;23.312;2022-12-11T01:29:46;21.77;;;13.02;;
51224;SDS011;37298;42.688;23.312;2022-12-11T01:32:13;19.70;;;11.55;;
51224;SDS011;37298;42.688;23.312;2022-12-11T01:34:40;20.55;;;12.10;;
51224;SDS011;37298;42.688;23.312;2022-12-11T01:37:07;18.45;;;8.20;;
51224;SDS011;37298;42.688;23.312;2022-12-11T01:39:35;17.02;;;8.93;;
51224;SDS011;37298;42.688;23.312;2022-12-11T01:42:03;18.60;;;10.68;;
51224;SDS011;37298;42.688;23.312;2022-12-11T01:47:17;16.83;;;10.40;;
51224;SDS011;37298;42.688;23.312;2022-12-11T01:49:44;18.95;;;11.13;;
51224;SDS011;37298;42.688;23.312;2022-12-11T01:52:12;15.63;;;10.27;;
51224;SDS011;37298;42.688;23.312;2022-12-11T01:57:07;24.83;;;10.65;;
51224;SDS011;37298;42.688;23.312;2022-12-11T01:59:35;20.48;;;11.00;;
51224;SDS011;37298;42.688;23.312;2022-12-11T02:02:03;17.33;;;8.50;;
51224;SDS011;37298;42.688;23.312;2022-12-11T02:04:33;20.08;;;10.02;;
51224;SDS011;37298;42.688;23.312;2022-12-11T02:07:00;16.02;;;8.07;;
51224;SDS011;37298;42.688;23.312;2022-12-11T02:09:29;10.93;;;7.47;;
51224;SDS011;37298;42.688;23.312;2022-12-11T02:12:02;13.38;;;7.63;;
51224;SDS011;37298;42.688;23.312;2022-12-11T02:14:33;13.25;;;5.97;;
51224;SDS011;37298;42.688;23.312;2022-12-11T02:17:05;10.88;;;4.00;;
51224;SDS011;37298;42.688;23.312;2022-12-11T02:19:41;6.68;;;3.67;;
51224;SDS011;37298;42.688;23.312;2022-12-11T02:22:12;6.07;;;3.45;;
51224;SDS011;37298;42.688;23.312;2022-12-11T02:24:46;7.93;;;3.40;;
51224;SDS011;37298;42.688;23.312;2022-12-11T02:27:18;1.92;;;1.48;;
51224;SDS011;37298;42.688;23.312;2022-12-11T02:29:50;2.45;;;2.13;;
51224;SDS011;37298;42.688;23.312;2022-12-11T02:32:20;5.93;;;2.63;;
51224;SDS011;37298;42.688;23.312;2022-12-11T02:34:48;6.78;;;2.20;;
51224;SDS011;37298;42.688;23.312;2022-12-11T02:37:17;3.65;;;2.08;;
51224;SDS011;37298;42.688;23.312;2022-12-11T02:39:45;3.47;;;2.20;;
51224;SDS011;37298;42.688;23.312;2022-12-11T02:42:14;2.67;;;1.70;;
51224;SDS011;37298;42.688;23.312;2022-12-11T02:44:41;2.10;;;1.60;;
51224;SDS011;37298;42.688;23.312;2022-12-11T02:47:11;3.83;;;2.40;;
51224;SDS011;37298;42.688;23.312;2022-12-11T02:49:39;4.93;;;1.98;;
51224;SDS011;37298;42.688;23.312;2022-12-11T02:52:09;3.63;;;2.00;;
51224;SDS011;37298;42.688;23.312;2022-12-11T02:54:36;4.88;;;1.90;;
51224;SDS011;37298;42.688;23.312;2022-12-11T02:59:33;3.50;;;1.80;;
51224;SDS011;37298;42.688;23.312;2022-12-11T03:02:01;2.83;;;2.10;;
51224;SDS011;37298;42.688;23.312;2022-12-11T03:04:30;6.00;;;2.33;;
51224;SDS011;37298;42.688;23.312;2022-12-11T03:09:24;2.60;;;2.17;;
51224;SDS011;37298;42.688;23.312;2022-12-11T03:11:51;5.75;;;2.50;;
51224;SDS011;37298;42.688;23.312;2022-12-11T03:14:18;4.45;;;2.40;;
51224;SDS011;37298;42.688;23.312;2022-12-11T03:16:46;3.70;;;2.35;;
51224;SDS011;37298;42.688;23.312;2022-12-11T03:19:21;3.58;;;1.95;;
51224;SDS011;37298;42.688;23.312;2022-12-11T03:21:51;3.70;;;2.40;;
51224;SDS011;37298;42.688;23.312;2022-12-11T03:24:19;4.70;;;2.35;;
51224;SDS011;37298;42.688;23.312;2022-12-11T03:26:52;4.80;;;2.17;;
51224;SDS011;37298;42.688;23.312;2022-12-11T03:29:22;3.33;;;2.20;;
51224;SDS011;37298;42.688;23.312;2022-12-11T03:31:50;2.17;;;1.70;;
51224;SDS011;37298;42.688;23.312;2022-12-11T03:34:21;4.82;;;2.70;;
51224;SDS011;37298;42.688;23.312;2022-12-11T03:36:50;4.43;;;2.05;;
51224;SDS011;37298;42.688;23.312;2022-12-11T03:39:20;2.72;;;2.10;;
51224;SDS011;37298;42.688;23.312;2022-12-11T03:41:50;3.75;;;1.70;;
51224;SDS011;37298;42.688;23.312;2022-12-11T03:44:17;3.78;;;1.80;;
51224;SDS011;37298;42.688;23.312;2022-12-11T03:46:46;2.33;;;1.83;;
51224;SDS011;37298;42.688;23.312;2022-12-11T03:49:14;3.30;;;2.00;;
51224;SDS011;37298;42.688;23.312;2022-12-11T03:51:42;2.72;;;1.55;;
51224;SDS011;37298;42.688;23.312;2022-12-11T03:54:11;5.95;;;2.13;;
51224;SDS011;37298;42.688;23.312;2022-12-11T03:56:38;2.50;;;1.63;;
51224;SDS011;37298;42.688;23.312;2022-12-11T03:59:06;4.43;;;1.30;;
51224;SDS011;37298;42.688;23.312;2022-12-11T04:01:33;2.67;;;1.40;;
51224;SDS011;37298;42.688;23.312;2022-12-11T04:04:00;2.10;;;1.30;;
51224;SDS011;37298;42.688;23.312;2022-12-11T04:06:27;4.00;;;1.70;;
51224;SDS011;37298;42.688;23.312;2022-12-11T04:08:54;2.25;;;1.40;;
51224;SDS011;37298;42.688;23.312;2022-12-11T04:11:22;4.85;;;1.60;;
51224;SDS011;37298;42.688;23.312;2022-12-11T04:14:01;1.20;;;1.10;;
51224;SDS011;37298;42.688;23.312;2022-12-11T04:16:45;4.82;;;1.50;;
51224;SDS011;37298;42.688;23.312;2022-12-11T04:19:12;3.70;;;1.90;;
51224;SDS011;37298;42.688;23.312;2022-12-11T04:22:11;1.75;;;1.27;;
51224;SDS011;37298;42.688;23.312;2022-12-11T04:24:56;3.08;;;1.45;;
51224;SDS011;37298;42.688;23.312;2022-12-11T04:27:25;2.40;;;1.50;;
51224;SDS011;37298;42.688;23.312;2022-12-11T04:30:21;2.30;;;1.52;;
51224;SDS011;37298;42.688;23.312;2022-12-11T04:32:49;5.03;;;1.40;;
51224;SDS011;37298;42.688;23.312;2022-12-11T04:35:15;2.42;;;1.30;;
51224;SDS011;37298;42.688;23.312;2022-12-11T04:37:43;1.92;;;1.10;;
51224;SDS011;37298;42.688;23.312;2022-12-11T04:40:10;1.95;;;1.08;;
51224;SDS011;37298;42.688;23.312;2022-12-11T04:42:39;3.80;;;1.33;;
51224;SDS011;37298;42.688;23.312;2022-12-11T04:45:06;2.00;;;1.10;;
51224;SDS011;37298;42.688;23.312;2022-12-11T04:47:33;0.90;;;0.90;;
51224;SDS011;37298;42.688;23.312;2022-12-11T04:50:00;1.20;;;1.10;;
51224;SDS011;37298;42.688;23.312;2022-12-11T04:52:27;2.35;;;1.10;;
51224;SDS011;37298;42.688;23.312;2022-12-11T04:54:54;3.72;;;1.48;;
51224;SDS011;37298;42.688;23.312;2022-12-11T04:57:20;1.42;;;0.93;;
51224;SDS011;37298;42.688;23.312;2022-12-11T04:59:48;2.67;;;0.93;;
51224;SDS011;37298;42.688;23.312;2022-12-11T05:02:15;1.15;;;0.90;;
51224;SDS011;37298;42.688;23.312;2022-12-11T05:04:42;3.53;;;1.33;;
51224;SDS011;37298;42.688;23.312;2022-12-11T05:07:09;2.65;;;0.90;;
51224;SDS011;37298;42.688;23.312;2022-12-11T05:09:36;0.90;;;0.80;;
51224;SDS011;37298;42.688;23.312;2022-12-11T05:12:03;2.00;;;0.98;;
51224;SDS011;37298;42.688;23.312;2022-12-11T05:14:29;1.20;;;1.05;;
51224;SDS011;37298;42.688;23.312;2022-12-11T05:16:58;2.72;;;1.23;;
51224;SDS011;37298;42.688;23.312;2022-12-11T05:19:25;1.80;;;1.10;;
51224;SDS011;37298;42.688;23.312;2022-12-11T05:21:52;2.67;;;0.90;;
51224;SDS011;37298;42.688;23.312;2022-12-11T05:24:19;2.47;;;0.90;;
51224;SDS011;37298;42.688;23.312;2022-12-11T05:26:45;1.92;;;1.00;;
51224;SDS011;37298;42.688;23.312;2022-12-11T05:29:12;4.60;;;1.20;;
51224;SDS011;37298;42.688;23.312;2022-12-11T05:31:39;3.97;;;2.08;;
51224;SDS011;37298;42.688;23.312;2022-12-11T05:34:07;7.35;;;1.92;;
51224;SDS011;37298;42.688;23.312;2022-12-11T05:36:34;1.75;;;1.20;;
51224;SDS011;37298;42.688;23.312;2022-12-11T05:39:02;5.47;;;1.15;;
51224;SDS011;37298;42.688;23.312;2022-12-11T05:41:30;2.60;;;1.33;;
51224;SDS011;37298;42.688;23.312;2022-12-11T05:43:57;1.95;;;1.05;;
51224;SDS011;37298;42.688;23.312;2022-12-11T05:46:25;4.45;;;1.25;;
51224;SDS011;37298;42.688;23.312;2022-12-11T05:48:53;1.67;;;1.10;;
51224;SDS011;37298;42.688;23.312;2022-12-11T05:51:22;3.33;;;1.30;;
51224;SDS011;37298;42.688;23.312;2022-12-11T05:53:49;3.03;;;1.30;;
51224;SDS011;37298;42.688;23.312;2022-12-11T05:56:17;0.93;;;0.80;;
51224;SDS011;37298;42.688;23.312;2022-12-11T05:58:44;1.88;;;1.10;;
51224;SDS011;37298;42.688;23.312;2022-12-11T06:01:14;4.38;;;1.30;;
51224;SDS011;37298;42.688;23.312;2022-12-11T06:03:41;2.78;;;1.50;;
51224;SDS011;37298;42.688;23.312;2022-12-11T06:06:08;3.08;;;1.20;;
51224;SDS011;37298;42.688;23.312;2022-12-11T06:08:36;2.85;;;1.15;;
51224;SDS011;37298;42.688;23.312;2022-12-11T06:11:03;1.70;;;1.20;;
51224;SDS011;37298;42.688;23.312;2022-12-11T06:13:30;4.07;;;1.10;;
51224;SDS011;37298;42.688;23.312;2022-12-11T06:15:58;3.30;;;1.40;;
51224;SDS011;37298;42.688;23.312;2022-12-11T06:18:25;3.22;;;1.67;;
51224;SDS011;37298;42.688;23.312;2022-12-11T06:20:52;2.65;;;1.35;;
51224;SDS011;37298;42.688;23.312;2022-12-11T06:23:19;1.63;;;1.30;;
51224;SDS011;37298;42.688;23.312;2022-12-11T06:25:47;2.10;;;0.98;;
51224;SDS011;37298;42.688;23.312;2022-12-11T06:28:14;1.85;;;1.23;;
51224;SDS011;37298;42.688;23.312;2022-12-11T06:30:41;1.17;;;1.08;;
51224;SDS011;37298;42.688;23.312;2022-12-11T06:33:09;1.27;;;1.15;;
51224;SDS011;37298;42.688;23.312;2022-12-11T06:35:36;1.05;;;1.00;;
51224;SDS011;37298;42.688;23.312;2022-12-11T06:38:02;1.30;;;1.20;;
51224;SDS011;37298;42.688;23.312;2022-12-11T06:40:29;2.03;;;1.10;;
51224;SDS011;37298;42.688;23.312;2022-12-11T06:42:57;2.05;;;1.00;;
51224;SDS011;37298;42.688;23.312;2022-12-11T06:45:24;2.17;;;1.30;;
51224;SDS011;37298;42.688;23.312;2022-12-11T06:47:51;2.03;;;1.30;;
51224;SDS011;37298;42.688;23.312;2022-12-11T06:50:18;3.08;;;1.48;;
51224;SDS011;37298;42.688;23.312;2022-12-11T06:52:44;2.25;;;1.00;;
51224;SDS011;37298;42.688;23.312;2022-12-11T06:55:11;1.13;;;1.00;;
51224;SDS011;37298;42.688;23.312;2022-12-11T06:57:38;3.10;;;1.35;;
51224;SDS011;37298;42.688;23.312;2022-12-11T07:00:07;3.22;;;1.27;;
51224;SDS011;37298;42.688;23.312;2022-12-11T07:02:34;3.15;;;1.70;;
51224;SDS011;37298;42.688;23.312;2022-12-11T07:05:01;3.78;;;1.60;;
51224;SDS011;37298;42.688;23.312;2022-12-11T07:07:27;4.88;;;1.88;;
51224;SDS011;37298;42.688;23.312;2022-12-11T07:09:54;2.58;;;1.30;;
51224;SDS011;37298;42.688;23.312;2022-12-11T07:12:21;2.65;;;1.55;;
51224;SDS011;37298;42.688;23.312;2022-12-11T07:14:48;2.38;;;1.60;;
51224;SDS011;37298;42.688;23.312;2022-12-11T07:17:16;2.17;;;1.10;;
51224;SDS011;37298;42.688;23.312;2022-12-11T07:19:43;3.65;;;1.45;;
51224;SDS011;37298;42.688;23.312;2022-12-11T07:22:10;4.10;;;1.60;;
51224;SDS011;37298;42.688;23.312;2022-12-11T07:24:36;4.53;;;1.80;;
51224;SDS011;37298;42.688;23.312;2022-12-11T07:27:03;4.32;;;2.00;;
51224;SDS011;37298;42.688;23.312;2022-12-11T07:29:30;4.85;;;1.77;;
51224;SDS011;37298;42.688;23.312;2022-12-11T07:31:57;3.00;;;1.60;;
51224;SDS011;37298;42.688;23.312;2022-12-11T07:34:25;2.60;;;1.40;;
51224;SDS011;37298;42.688;23.312;2022-12-11T07:36:52;5.72;;;1.70;;
51224;SDS011;37298;42.688;23.312;2022-12-11T07:39:19;12.52;;;3.20;;
51224;SDS011;37298;42.688;23.312;2022-12-11T07:41:45;3.25;;;1.50;;
51224;SDS011;37298;42.688;23.312;2022-12-11T07:46:41;3.80;;;2.00;;
51224;SDS011;37298;42.688;23.312;2022-12-11T07:49:07;4.28;;;1.73;;
51224;SDS011;37298;42.688;23.312;2022-12-11T07:51:36;6.82;;;1.83;;
51224;SDS011;37298;42.688;23.312;2022-12-11T07:54:06;4.00;;;1.85;;
51224;SDS011;37298;42.688;23.312;2022-12-11T07:56:33;2.67;;;1.40;;
51224;SDS011;37298;42.688;23.312;2022-12-11T07:59:00;1.90;;;1.33;;
51224;SDS011;37298;42.688;23.312;2022-12-11T08:01:28;2.22;;;1.48;;
51224;SDS011;37298;42.688;23.312;2022-12-11T08:03:56;3.00;;;2.10;;
51224;SDS011;37298;42.688;23.312;2022-12-11T08:06:24;5.28;;;1.45;;
51224;SDS011;37298;42.688;23.312;2022-12-11T08:08:53;5.60;;;1.33;;
51224;SDS011;37298;42.688;23.312;2022-12-11T08:11:20;5.20;;;1.77;;
51224;SDS011;37298;42.688;23.312;2022-12-11T08:13:47;2.45;;;1.17;;
51224;SDS011;37298;42.688;23.312;2022-12-11T08:16:14;5.35;;;2.40;;
51224;SDS011;37298;42.688;23.312;2022-12-11T08:18:41;5.07;;;1.80;;
51224;SDS011;37298;42.688;23.312;2022-12-11T08:21:09;2.97;;;1.40;;
51224;SDS011;37298;42.688;23.312;2022-12-11T08:23:36;1.10;;;1.00;;
51224;SDS011;37298;42.688;23.312;2022-12-11T08:26:06;2.50;;;1.30;;
51224;SDS011;37298;42.688;23.312;2022-12-11T08:28:36;1.73;;;1.40;;
51224;SDS011;37298;42.688;23.312;2022-12-11T08:31:03;3.97;;;2.08;;
51224;SDS011;37298;42.688;23.312;2022-12-11T08:33:30;2.17;;;1.10;;
51224;SDS011;37298;42.688;23.312;2022-12-11T08:36:00;2.30;;;1.02;;
51224;SDS011;37298;42.688;23.312;2022-12-11T08:38:27;2.67;;;2.05;;
51224;SDS011;37298;42.688;23.312;2022-12-11T08:40:56;2.72;;;1.27;;
51224;SDS011;37298;42.688;23.312;2022-12-11T08:43:24;1.52;;;1.15;;
51224;SDS011;37298;42.688;23.312;2022-12-11T08:45:51;3.33;;;1.30;;
51224;SDS011;37298;42.688;23.312;2022-12-11T08:48:17;1.27;;;1.15;;
51224;SDS011;37298;42.688;23.312;2022-12-11T08:50:44;2.20;;;1.30;;
51224;SDS011;37298;42.688;23.312;2022-12-11T08:53:11;4.25;;;2.00;;
51224;SDS011;37298;42.688;23.312;2022-12-11T08:55:38;3.15;;;1.30;;
51224;SDS011;37298;42.688;23.312;2022-12-11T08:58:05;3.65;;;1.38;;
51224;SDS011;37298;42.688;23.312;2022-12-11T09:00:33;3.17;;;1.80;;
51224;SDS011;37298;42.688;23.312;2022-12-11T09:03:00;4.68;;;1.92;;
51224;SDS011;37298;42.688;23.312;2022-12-11T09:05:28;5.63;;;2.70;;
51224;SDS011;37298;42.688;23.312;2022-12-11T09:07:55;5.65;;;2.70;;
51224;SDS011;37298;42.688;23.312;2022-12-11T09:10:23;5.25;;;2.70;;
51224;SDS011;37298;42.688;23.312;2022-12-11T09:12:50;7.20;;;2.67;;
51224;SDS011;37298;42.688;23.312;2022-12-11T09:15:17;6.10;;;2.90;;
51224;SDS011;37298;42.688;23.312;2022-12-11T09:17:45;5.18;;;2.47;;
51224;SDS011;37298;42.688;23.312;2022-12-11T09:20:12;4.40;;;1.95;;
51224;SDS011;37298;42.688;23.312;2022-12-11T09:22:39;4.93;;;1.55;;
51224;SDS011;37298;42.688;23.312;2022-12-11T09:25:07;5.03;;;1.73;;
51224;SDS011;37298;42.688;23.312;2022-12-11T09:27:34;7.35;;;1.20;;
51224;SDS011;37298;42.688;23.312;2022-12-11T09:30:01;4.32;;;1.40;;
51224;SDS011;37298;42.688;23.312;2022-12-11T09:32:28;1.75;;;1.35;;
51224;SDS011;37298;42.688;23.312;2022-12-11T09:34:56;3.65;;;1.17;;
51224;SDS011;37298;42.688;23.312;2022-12-11T09:37:23;8.38;;;1.70;;
51224;SDS011;37298;42.688;23.312;2022-12-11T09:39:50;3.00;;;1.80;;
51224;SDS011;37298;42.688;23.312;2022-12-11T09:42:18;2.25;;;1.30;;
51224;SDS011;37298;42.688;23.312;2022-12-11T09:44:47;2.40;;;0.98;;
51224;SDS011;37298;42.688;23.312;2022-12-11T09:47:18;2.40;;;1.30;;
51224;SDS011;37298;42.688;23.312;2022-12-11T09:49:48;4.38;;;1.63;;
51224;SDS011;37298;42.688;23.312;2022-12-11T09:52:17;1.55;;;1.20;;
51224;SDS011;37298;42.688;23.312;2022-12-11T09:54:47;3.00;;;0.90;;
51224;SDS011;37298;42.688;23.312;2022-12-11T09:57:17;1.83;;;1.33;;
51224;SDS011;37298;42.688;23.312;2022-12-11T09:59:56;4.20;;;1.52;;
51224;SDS011;37298;42.688;23.312;2022-12-11T10:02:28;1.83;;;1.00;;
51224;SDS011;37298;42.688;23.312;2022-12-11T10:05:00;2.08;;;1.27;;
51224;SDS011;37298;42.688;23.312;2022-12-11T10:07:32;2.47;;;1.45;;
51224;SDS011;37298;42.688;23.312;2022-12-11T10:10:02;4.38;;;1.45;;
51224;SDS011;37298;42.688;23.312;2022-12-11T10:12:34;2.83;;;1.20;;
51224;SDS011;37298;42.688;23.312;2022-12-11T10:15:11;1.98;;;1.05;;
51224;SDS011;37298;42.688;23.312;2022-12-11T10:17:39;5.13;;;2.10;;
51224;SDS011;37298;42.688;23.312;2022-12-11T10:20:13;3.95;;;1.50;;
51224;SDS011;37298;42.688;23.312;2022-12-11T10:22:43;2.78;;;1.30;;
51224;SDS011;37298;42.688;23.312;2022-12-11T10:25:13;3.20;;;1.33;;
51224;SDS011;37298;42.688;23.312;2022-12-11T10:27:42;2.70;;;1.08;;
51224;SDS011;37298;42.688;23.312;2022-12-11T10:30:12;1.75;;;1.20;;
51224;SDS011;37298;42.688;23.312;2022-12-11T10:32:42;2.83;;;1.60;;
51224;SDS011;37298;42.688;23.312;2022-12-11T10:35:16;2.85;;;1.23;;
51224;SDS011;37298;42.688;23.312;2022-12-11T10:37:45;5.05;;;1.52;;
51224;SDS011;37298;42.688;23.312;2022-12-11T10:40:12;6.55;;;2.22;;
51224;SDS011;37298;42.688;23.312;2022-12-11T10:42:39;9.15;;;5.20;;
51224;SDS011;37298;42.688;23.312;2022-12-11T10:45:06;4.18;;;1.88;;
51224;SDS011;37298;42.688;23.312;2022-12-11T10:47:33;1.17;;;1.08;;
51224;SDS011;37298;42.688;23.312;2022-12-11T10:50:00;2.83;;;1.63;;
51224;SDS011;37298;42.688;23.312;2022-12-11T10:52:28;1.92;;;0.95;;
51224;SDS011;37298;42.688;23.312;2022-12-11T10:54:59;1.75;;;1.45;;
51224;SDS011;37298;42.688;23.312;2022-12-11T10:57:27;2.17;;;1.13;;
51224;SDS011;37298;42.688;23.312;2022-12-11T10:59:55;2.40;;;1.10;;
51224;SDS011;37298;42.688;23.312;2022-12-11T11:02:23;3.27;;;1.47;;
51224;SDS011;37298;42.688;23.312;2022-12-11T11:04:51;2.38;;;1.25;;
51224;SDS011;37298;42.688;23.312;2022-12-11T11:07:19;3.92;;;2.15;;
51224;SDS011;37298;42.688;23.312;2022-12-11T11:09:46;3.65;;;1.42;;
51224;SDS011;37298;42.688;23.312;2022-12-11T11:12:20;1.30;;;1.00;;
51224;SDS011;37298;42.688;23.312;2022-12-11T11:14:57;3.08;;;1.92;;
51224;SDS011;37298;42.688;23.312;2022-12-11T11:17:24;4.38;;;1.40;;
51224;SDS011;37298;42.688;23.312;2022-12-11T11:19:51;2.53;;;1.20;;
51224;SDS011;37298;42.688;23.312;2022-12-11T11:22:17;3.63;;;2.17;;
51224;SDS011;37298;42.688;23.312;2022-12-11T11:24:45;2.47;;;1.58;;
51224;SDS011;37298;42.688;23.312;2022-12-11T11:27:24;6.63;;;1.80;;
51224;SDS011;37298;42.688;23.312;2022-12-11T11:29:53;3.85;;;1.90;;
51224;SDS011;37298;42.688;23.312;2022-12-11T11:32:22;4.57;;;2.77;;
51224;SDS011;37298;42.688;23.312;2022-12-11T11:34:49;4.83;;;2.50;;
51224;SDS011;37298;42.688;23.312;2022-12-11T11:37:23;5.00;;;2.45;;
51224;SDS011;37298;42.688;23.312;2022-12-11T11:39:52;5.10;;;3.00;;
51224;SDS011;37298;42.688;23.312;2022-12-11T11:42:24;4.47;;;2.08;;
51224;SDS011;37298;42.688;23.312;2022-12-11T11:44:57;4.03;;;1.80;;
51224;SDS011;37298;42.688;23.312;2022-12-11T11:47:26;1.52;;;1.08;;
51224;SDS011;37298;42.688;23.312;2022-12-11T11:49:54;2.70;;;2.22;;
51224;SDS011;37298;42.688;23.312;2022-12-11T11:52:27;7.28;;;3.95;;
51224;SDS011;37298;42.688;23.312;2022-12-11T11:54:55;5.07;;;2.20;;
51224;SDS011;37298;42.688;23.312;2022-12-11T11:57:31;3.88;;;2.30;;
51224;SDS011;37298;42.688;23.312;2022-12-11T12:00:01;3.55;;;1.77;;
51224;SDS011;37298;42.688;23.312;2022-12-11T12:02:39;2.15;;;1.70;;
51224;SDS011;37298;42.688;23.312;2022-12-11T12:05:08;3.45;;;2.05;;
51224;SDS011;37298;42.688;23.312;2022-12-11T12:10:03;5.00;;;2.10;;
51224;SDS011;37298;42.688;23.312;2022-12-11T12:12:36;5.22;;;2.53;;
51224;SDS011;37298;42.688;23.312;2022-12-11T12:15:08;5.88;;;2.75;;
51224;SDS011;37298;42.688;23.312;2022-12-11T12:17:40;7.13;;;3.40;;
51224;SDS011;37298;42.688;23.312;2022-12-11T12:20:12;11.48;;;1.80;;
51224;SDS011;37298;42.688;23.312;2022-12-11T12:22:51;3.30;;;2.00;;
51224;SDS011;37298;42.688;23.312;2022-12-11T12:25:29;9.35;;;2.35;;
51224;SDS011;37298;42.688;23.312;2022-12-11T12:28:03;5.60;;;2.13;;
51224;SDS011;37298;42.688;23.312;2022-12-11T12:30:34;5.13;;;2.25;;
51224;SDS011;37298;42.688;23.312;2022-12-11T12:33:10;3.70;;;2.83;;
51224;SDS011;37298;42.688;23.312;2022-12-11T12:35:41;4.00;;;2.60;;
51224;SDS011;37298;42.688;23.312;2022-12-11T12:38:12;3.15;;;2.13;;
51224;SDS011;37298;42.688;23.312;2022-12-11T12:40:46;1.88;;;1.70;;
51224;SDS011;37298;42.688;23.312;2022-12-11T12:43:24;3.67;;;2.20;;
51224;SDS011;37298;42.688;23.312;2022-12-11T12:45:52;4.30;;;2.60;;
51224;SDS011;37298;42.688;23.312;2022-12-11T12:48:23;4.40;;;2.05;;
51224;SDS011;37298;42.688;23.312;2022-12-11T12:50:52;4.20;;;2.73;;
51224;SDS011;37298;42.688;23.312;2022-12-11T12:53:21;7.15;;;3.83;;
51224;SDS011;37298;42.688;23.312;2022-12-11T12:58:25;1.95;;;1.73;;
51224;SDS011;37298;42.688;23.312;2022-12-11T13:00:52;3.35;;;2.70;;
51224;SDS011;37298;42.688;23.312;2022-12-11T13:03:20;2.90;;;2.10;;
51224;SDS011;37298;42.688;23.312;2022-12-11T13:05:54;3.03;;;2.28;;
51224;SDS011;37298;42.688;23.312;2022-12-11T13:08:25;1.63;;;1.52;;
51224;SDS011;37298;42.688;23.312;2022-12-11T13:10:58;2.70;;;2.00;;
51224;SDS011;37298;42.688;23.312;2022-12-11T13:13:32;4.07;;;2.38;;
51224;SDS011;37298;42.688;23.312;2022-12-11T13:16:06;3.65;;;2.38;;
51224;SDS011;37298;42.688;23.312;2022-12-11T13:18:34;2.67;;;1.63;;
51224;SDS011;37298;42.688;23.312;2022-12-11T13:21:02;4.20;;;2.20;;
51224;SDS011;37298;42.688;23.312;2022-12-11T13:23:29;2.42;;;2.10;;
51224;SDS011;37298;42.688;23.312;2022-12-11T13:25:57;3.60;;;2.23;;
51224;SDS011;37298;42.688;23.312;2022-12-11T13:28:25;4.32;;;2.72;;
51224;SDS011;37298;42.688;23.312;2022-12-11T13:33:20;1.63;;;1.52;;
51224;SDS011;37298;42.688;23.312;2022-12-11T13:35:48;2.17;;;1.70;;
51224;SDS011;37298;42.688;23.312;2022-12-11T13:38:28;1.88;;;1.52;;
51224;SDS011;37298;42.688;23.312;2022-12-11T13:40:54;1.58;;;1.48;;
51224;SDS011;37298;42.688;23.312;2022-12-11T13:43:22;1.95;;;1.67;;
51224;SDS011;37298;42.688;23.312;2022-12-11T13:45:51;2.53;;;2.10;;
51224;SDS011;37298;42.688;23.312;2022-12-11T13:48:21;1.98;;;1.70;;
51224;SDS011;37298;42.688;23.312;2022-12-11T13:50:50;1.92;;;1.67;;
51224;SDS011;37298;42.688;23.312;2022-12-11T13:53:18;4.95;;;2.33;;
51224;SDS011;37298;42.688;23.312;2022-12-11T13:55:45;3.20;;;1.83;;
51224;SDS011;37298;42.688;23.312;2022-12-11T13:58:14;3.38;;;2.42;;
51224;SDS011;37298;42.688;23.312;2022-12-11T14:00:41;2.65;;;1.90;;
51224;SDS011;37298;42.688;23.312;2022-12-11T14:03:09;2.30;;;1.92;;
51224;SDS011;37298;42.688;23.312;2022-12-11T14:05:37;2.95;;;2.00;;
51224;SDS011;37298;42.688;23.312;2022-12-11T14:08:07;5.50;;;2.72;;
51224;SDS011;37298;42.688;23.312;2022-12-11T14:10:34;5.35;;;2.35;;
51224;SDS011;37298;42.688;23.312;2022-12-11T14:13:04;4.72;;;2.22;;
51224;SDS011;37298;42.688;23.312;2022-12-11T14:15:31;2.80;;;2.22;;
51224;SDS011;37298;42.688;23.312;2022-12-11T14:17:58;3.55;;;2.78;;
51224;SDS011;37298;42.688;23.312;2022-12-11T14:20:26;3.78;;;2.58;;
51224;SDS011;37298;42.688;23.312;2022-12-11T14:23:04;3.40;;;2.58;;
51224;SDS011;37298;42.688;23.312;2022-12-11T14:25:31;7.85;;;3.22;;
51224;SDS011;37298;42.688;23.312;2022-12-11T14:27:59;5.80;;;3.60;;
51224;SDS011;37298;42.688;23.312;2022-12-11T14:30:27;3.28;;;2.95;;
51224;SDS011;37298;42.688;23.312;2022-12-11T14:32:55;4.43;;;3.33;;
51224;SDS011;37298;42.688;23.312;2022-12-11T14:35:24;3.53;;;2.53;;
51224;SDS011;37298;42.688;23.312;2022-12-11T14:37:51;3.97;;;3.25;;
51224;SDS011;37298;42.688;23.312;2022-12-11T14:42:49;3.75;;;2.80;;
51224;SDS011;37298;42.688;23.312;2022-12-11T14:45:18;3.35;;;2.60;;
51224;SDS011;37298;42.688;23.312;2022-12-11T14:47:46;5.30;;;3.00;;
51224;SDS011;37298;42.688;23.312;2022-12-11T14:50:16;4.82;;;2.78;;
51224;SDS011;37298;42.688;23.312;2022-12-11T14:52:46;6.45;;;3.90;;
51224;SDS011;37298;42.688;23.312;2022-12-11T14:55:14;5.18;;;4.13;;
51224;SDS011;37298;42.688;23.312;2022-12-11T14:57:42;8.93;;;4.97;;
51224;SDS011;37298;42.688;23.312;2022-12-11T15:00:21;4.60;;;3.67;;
51224;SDS011;37298;42.688;23.312;2022-12-11T15:02:56;3.22;;;2.42;;